sensor_id;sensor_type;location;lat;lon;timestamp;temperature;humidity
68977;SHT31;56029;52.568;13.588;2022-07-29T00:02:17;14.34;76.30
68977;SHT31;56029;52.568;13.588;2022-07-29T00:04:43;14.32;76.67
68977;SHT31;56029;52.568;13.588;2022-07-29T00:07:08;14.21;76.89
68977;SHT31;56029;52.568;13.588;2022-07-29T00:09:34;14.18;77.20
68977;SHT31;56029;52.568;13.588;2022-07-29T00:12:01;14.18;77.13
68977;SHT31;56029;52.568;13.588;2022-07-29T00:14:27;14.20;77.36
68977;SHT31;56029;52.568;13.588;2022-07-29T00:16:52;14.18;77.59
68977;SHT31;56029;52.568;13.588;2022-07-29T00:19:18;14.11;77.83
68977;SHT31;56029;52.568;13.588;2022-07-29T00:21:44;14.08;77.85
68977;SHT31;56029;52.568;13.588;2022-07-29T00:24:09;14.04;77.95
68977;SHT31;56029;52.568;13.588;2022-07-29T00:26:35;14.07;78.11
68977;SHT31;56029;52.568;13.588;2022-07-29T00:29:02;14.04;78.27
68977;SHT31;56029;52.568;13.588;2022-07-29T00:31:28;13.98;78.36
68977;SHT31;56029;52.568;13.588;2022-07-29T00:33:54;13.94;78.63
68977;SHT31;56029;52.568;13.588;2022-07-29T00:36:20;13.90;78.98
68977;SHT31;56029;52.568;13.588;2022-07-29T00:38:50;13.84;79.39
68977;SHT31;56029;52.568;13.588;2022-07-29T00:41:17;13.83;79.18
68977;SHT31;56029;52.568;13.588;2022-07-29T00:43:44;13.80;79.28
68977;SHT31;56029;52.568;13.588;2022-07-29T00:46:10;13.81;79.39
68977;SHT31;56029;52.568;13.588;2022-07-29T00:48:36;13.78;79.72
68977;SHT31;56029;52.568;13.588;2022-07-29T00:51:03;13.76;79.68
68977;SHT31;56029;52.568;13.588;2022-07-29T00:53:29;13.73;79.63
68977;SHT31;56029;52.568;13.588;2022-07-29T00:55:56;13.71;80.05
68977;SHT31;56029;52.568;13.588;2022-07-29T00:58:22;13.69;80.34
68977;SHT31;56029;52.568;13.588;2022-07-29T01:00:48;13.70;80.12
68977;SHT31;56029;52.568;13.588;2022-07-29T01:03:14;13.67;80.30
68977;SHT31;56029;52.568;13.588;2022-07-29T01:05:40;13.63;80.50
68977;SHT31;56029;52.568;13.588;2022-07-29T01:08:06;13.60;80.64
68977;SHT31;56029;52.568;13.588;2022-07-29T01:10:33;13.55;80.63
68977;SHT31;56029;52.568;13.588;2022-07-29T01:13:01;13.50;80.76
68977;SHT31;56029;52.568;13.588;2022-07-29T01:15:27;13.39;81.26
68977;SHT31;56029;52.568;13.588;2022-07-29T01:18:11;13.36;81.48
68977;SHT31;56029;52.568;13.588;2022-07-29T01:29:23;13.22;81.73
68977;SHT31;56029;52.568;13.588;2022-07-29T01:32:02;13.20;81.75
68977;SHT31;56029;52.568;13.588;2022-07-29T01:34:48;13.12;82.26
68977;SHT31;56029;52.568;13.588;2022-07-29T01:37:22;13.04;82.28
68977;SHT31;56029;52.568;13.588;2022-07-29T01:39:52;12.99;82.29
68977;SHT31;56029;52.568;13.588;2022-07-29T01:42:33;12.94;82.66
68977;SHT31;56029;52.568;13.588;2022-07-29T01:47:48;12.77;83.03
68977;SHT31;56029;52.568;13.588;2022-07-29T01:50:17;12.65;83.35
68977;SHT31;56029;52.568;13.588;2022-07-29T01:52:49;12.61;83.72
68977;SHT31;56029;52.568;13.588;2022-07-29T01:55:20;12.49;84.23
68977;SHT31;56029;52.568;13.588;2022-07-29T01:57:48;12.46;84.29
68977;SHT31;56029;52.568;13.588;2022-07-29T02:00:14;12.50;84.53
68977;SHT31;56029;52.568;13.588;2022-07-29T02:02:42;12.51;84.70
68977;SHT31;56029;52.568;13.588;2022-07-29T02:05:10;12.54;84.83
68977;SHT31;56029;52.568;13.588;2022-07-29T02:07:38;12.63;84.82
68977;SHT31;56029;52.568;13.588;2022-07-29T02:10:07;12.70;84.53
68977;SHT31;56029;52.568;13.588;2022-07-29T02:12:34;12.76;84.21
68977;SHT31;56029;52.568;13.588;2022-07-29T02:15:03;12.80;84.10
68977;SHT31;56029;52.568;13.588;2022-07-29T02:17:42;12.80;84.29
68977;SHT31;56029;52.568;13.588;2022-07-29T02:20:09;12.84;84.13
68977;SHT31;56029;52.568;13.588;2022-07-29T02:22:37;12.83;84.19
68977;SHT31;56029;52.568;13.588;2022-07-29T02:25:04;12.81;83.94
68977;SHT31;56029;52.568;13.588;2022-07-29T02:27:31;12.84;84.03
68977;SHT31;56029;52.568;13.588;2022-07-29T02:30:00;12.83;83.96
68977;SHT31;56029;52.568;13.588;2022-07-29T02:32:27;12.80;84.68
68977;SHT31;56029;52.568;13.588;2022-07-29T02:34:54;12.71;84.62
68977;SHT31;56029;52.568;13.588;2022-07-29T02:37:21;12.74;84.60
68977;SHT31;56029;52.568;13.588;2022-07-29T02:39:47;12.78;84.34
68977;SHT31;56029;52.568;13.588;2022-07-29T02:42:15;12.74;84.40
68977;SHT31;56029;52.568;13.588;2022-07-29T02:44:42;12.78;84.33
68977;SHT31;56029;52.568;13.588;2022-07-29T02:47:16;12.76;84.40
68977;SHT31;56029;52.568;13.588;2022-07-29T02:52:58;12.71;84.51
68977;SHT31;56029;52.568;13.588;2022-07-29T02:55:32;12.67;84.68
68977;SHT31;56029;52.568;13.588;2022-07-29T03:00:29;12.64;84.72
68977;SHT31;56029;52.568;13.588;2022-07-29T03:02:58;12.60;84.93
68977;SHT31;56029;52.568;13.588;2022-07-29T03:05:25;12.51;85.15
68977;SHT31;56029;52.568;13.588;2022-07-29T03:07:56;12.46;85.31
68977;SHT31;56029;52.568;13.588;2022-07-29T03:10:23;12.46;85.43
68977;SHT31;56029;52.568;13.588;2022-07-29T03:12:50;12.46;85.46
68977;SHT31;56029;52.568;13.588;2022-07-29T03:15:16;12.43;85.53
68977;SHT31;56029;52.568;13.588;2022-07-29T03:17:43;12.47;85.51
68977;SHT31;56029;52.568;13.588;2022-07-29T03:20:09;12.49;85.54
68977;SHT31;56029;52.568;13.588;2022-07-29T03:22:40;12.59;85.27
68977;SHT31;56029;52.568;13.588;2022-07-29T03:25:13;12.61;85.32
68977;SHT31;56029;52.568;13.588;2022-07-29T03:27:40;12.63;85.14
68977;SHT31;56029;52.568;13.588;2022-07-29T03:30:06;12.67;85.07
68977;SHT31;56029;52.568;13.588;2022-07-29T03:32:32;12.68;85.02
68977;SHT31;56029;52.568;13.588;2022-07-29T03:34:58;12.80;84.63
68977;SHT31;56029;52.568;13.588;2022-07-29T03:37:24;12.78;84.62
68977;SHT31;56029;52.568;13.588;2022-07-29T03:39:50;12.91;84.37
68977;SHT31;56029;52.568;13.588;2022-07-29T03:42:19;12.88;84.44
68977;SHT31;56029;52.568;13.588;2022-07-29T03:44:48;12.91;84.46
68977;SHT31;56029;52.568;13.588;2022-07-29T03:47:17;12.88;84.60
68977;SHT31;56029;52.568;13.588;2022-07-29T03:49:46;12.97;84.35
68977;SHT31;56029;52.568;13.588;2022-07-29T03:52:13;12.95;84.40
68977;SHT31;56029;52.568;13.588;2022-07-29T03:54:39;13.02;84.24
68977;SHT31;56029;52.568;13.588;2022-07-29T03:57:06;13.07;84.11
68977;SHT31;56029;52.568;13.588;2022-07-29T03:59:33;13.12;84.00
68977;SHT31;56029;52.568;13.588;2022-07-29T04:02:01;13.19;83.82
68977;SHT31;56029;52.568;13.588;2022-07-29T04:04:28;13.22;83.67
68977;SHT31;56029;52.568;13.588;2022-07-29T04:06:53;13.19;83.65
68977;SHT31;56029;52.568;13.588;2022-07-29T04:09:19;13.26;83.51
68977;SHT31;56029;52.568;13.588;2022-07-29T04:11:45;13.28;83.47
68977;SHT31;56029;52.568;13.588;2022-07-29T04:14:10;13.34;83.34
68977;SHT31;56029;52.568;13.588;2022-07-29T04:16:36;13.45;83.12
68977;SHT31;56029;52.568;13.588;2022-07-29T04:19:02;13.50;82.94
68977;SHT31;56029;52.568;13.588;2022-07-29T04:21:27;13.55;82.95
68977;SHT31;56029;52.568;13.588;2022-07-29T04:23:53;13.60;82.52
68977;SHT31;56029;52.568;13.588;2022-07-29T04:26:19;13.69;82.68
68977;SHT31;56029;52.568;13.588;2022-07-29T04:28:46;13.78;82.17
68977;SHT31;56029;52.568;13.588;2022-07-29T04:31:12;13.86;82.16
68977;SHT31;56029;52.568;13.588;2022-07-29T04:33:38;14.00;81.79
68977;SHT31;56029;52.568;13.588;2022-07-29T04:36:04;14.17;81.47
68977;SHT31;56029;52.568;13.588;2022-07-29T04:38:30;14.55;80.52
68977;SHT31;56029;52.568;13.588;2022-07-29T04:40:56;15.08;78.04
68977;SHT31;56029;52.568;13.588;2022-07-29T04:43:21;15.54;76.80
68977;SHT31;56029;52.568;13.588;2022-07-29T04:45:47;15.63;75.78
68977;SHT31;56029;52.568;13.588;2022-07-29T04:48:12;15.61;75.79
68977;SHT31;56029;52.568;13.588;2022-07-29T04:50:39;15.72;76.12
68977;SHT31;56029;52.568;13.588;2022-07-29T04:53:05;15.99;75.15
68977;SHT31;56029;52.568;13.588;2022-07-29T04:55:31;16.17;73.66
68977;SHT31;56029;52.568;13.588;2022-07-29T04:57:56;16.67;70.78
68977;SHT31;56029;52.568;13.588;2022-07-29T05:00:22;16.68;70.38
68977;SHT31;56029;52.568;13.588;2022-07-29T05:02:49;16.77;70.21
68977;SHT31;56029;52.568;13.588;2022-07-29T05:05:14;16.44;70.71
68977;SHT31;56029;52.568;13.588;2022-07-29T05:07:40;16.24;71.70
68977;SHT31;56029;52.568;13.588;2022-07-29T05:10:06;16.00;72.20
68977;SHT31;56029;52.568;13.588;2022-07-29T05:12:32;15.88;72.95
68977;SHT31;56029;52.568;13.588;2022-07-29T05:14:57;15.68;73.30
68977;SHT31;56029;52.568;13.588;2022-07-29T05:17:23;15.66;73.71
68977;SHT31;56029;52.568;13.588;2022-07-29T05:19:48;15.68;73.74
68977;SHT31;56029;52.568;13.588;2022-07-29T05:22:19;15.85;73.25
68977;SHT31;56029;52.568;13.588;2022-07-29T05:24:45;15.96;72.55
68977;SHT31;56029;52.568;13.588;2022-07-29T05:27:11;16.03;72.50
68977;SHT31;56029;52.568;13.588;2022-07-29T05:29:36;16.12;72.16
68977;SHT31;56029;52.568;13.588;2022-07-29T05:32:03;16.27;71.54
68977;SHT31;56029;52.568;13.588;2022-07-29T05:34:29;16.39;71.08
68977;SHT31;56029;52.568;13.588;2022-07-29T05:36:54;16.51;70.98
68977;SHT31;56029;52.568;13.588;2022-07-29T05:39:20;16.65;70.11
68977;SHT31;56029;52.568;13.588;2022-07-29T05:41:46;16.81;69.92
68977;SHT31;56029;52.568;13.588;2022-07-29T05:44:11;16.94;69.41
68977;SHT31;56029;52.568;13.588;2022-07-29T05:46:38;17.01;69.08
68977;SHT31;56029;52.568;13.588;2022-07-29T05:49:04;17.07;68.91
68977;SHT31;56029;52.568;13.588;2022-07-29T05:51:32;17.04;68.78
68977;SHT31;56029;52.568;13.588;2022-07-29T05:53:58;17.04;68.59
68977;SHT31;56029;52.568;13.588;2022-07-29T05:56:24;16.99;68.71
68977;SHT31;56029;52.568;13.588;2022-07-29T05:58:50;16.98;68.56
68977;SHT31;56029;52.568;13.588;2022-07-29T06:01:16;17.04;69.08
68977;SHT31;56029;52.568;13.588;2022-07-29T06:03:41;17.08;68.93
68977;SHT31;56029;52.568;13.588;2022-07-29T06:06:07;17.15;68.57
68977;SHT31;56029;52.568;13.588;2022-07-29T06:08:33;17.15;68.29
68977;SHT31;56029;52.568;13.588;2022-07-29T06:11:00;17.28;68.21
68977;SHT31;56029;52.568;13.588;2022-07-29T06:13:25;17.29;67.44
68977;SHT31;56029;52.568;13.588;2022-07-29T06:15:51;17.40;67.28
68977;SHT31;56029;52.568;13.588;2022-07-29T06:18:17;17.51;67.37
68977;SHT31;56029;52.568;13.588;2022-07-29T06:20:42;17.66;67.21
68977;SHT31;56029;52.568;13.588;2022-07-29T06:23:08;17.66;66.57
68977;SHT31;56029;52.568;13.588;2022-07-29T06:25:35;17.77;66.31
68977;SHT31;56029;52.568;13.588;2022-07-29T06:28:02;18.00;65.81
68977;SHT31;56029;52.568;13.588;2022-07-29T06:30:28;18.14;65.92
68977;SHT31;56029;52.568;13.588;2022-07-29T06:32:54;18.25;65.37
68977;SHT31;56029;52.568;13.588;2022-07-29T06:35:20;18.42;64.78
68977;SHT31;56029;52.568;13.588;2022-07-29T06:37:47;18.56;63.88
68977;SHT31;56029;52.568;13.588;2022-07-29T06:40:12;18.51;63.27
68977;SHT31;56029;52.568;13.588;2022-07-29T06:42:56;18.72;62.94
68977;SHT31;56029;52.568;13.588;2022-07-29T06:45:22;18.87;62.54
68977;SHT31;56029;52.568;13.588;2022-07-29T06:47:47;18.90;62.31
68977;SHT31;56029;52.568;13.588;2022-07-29T06:50:14;19.02;62.41
68977;SHT31;56029;52.568;13.588;2022-07-29T06:52:39;19.21;61.80
68977;SHT31;56029;52.568;13.588;2022-07-29T06:55:06;19.38;60.72
68977;SHT31;56029;52.568;13.588;2022-07-29T06:57:32;19.50;60.34
68977;SHT31;56029;52.568;13.588;2022-07-29T06:59:58;19.69;59.61
68977;SHT31;56029;52.568;13.588;2022-07-29T07:02:23;19.63;60.08
68977;SHT31;56029;52.568;13.588;2022-07-29T07:04:49;19.75;59.91
68977;SHT31;56029;52.568;13.588;2022-07-29T07:07:14;19.89;60.69
68977;SHT31;56029;52.568;13.588;2022-07-29T07:09:40;19.83;59.06
68977;SHT31;56029;52.568;13.588;2022-07-29T07:12:06;19.90;58.88
68977;SHT31;56029;52.568;13.588;2022-07-29T07:14:31;19.99;58.94
68977;SHT31;56029;52.568;13.588;2022-07-29T07:16:57;20.08;58.26
68977;SHT31;56029;52.568;13.588;2022-07-29T07:19:23;20.12;58.23
68977;SHT31;56029;52.568;13.588;2022-07-29T07:21:49;20.19;57.77
68977;SHT31;56029;52.568;13.588;2022-07-29T07:24:14;20.14;57.58
68977;SHT31;56029;52.568;13.588;2022-07-29T07:26:40;20.09;58.27
68977;SHT31;56029;52.568;13.588;2022-07-29T07:29:05;20.17;58.05
68977;SHT31;56029;52.568;13.588;2022-07-29T07:31:31;20.24;57.60
68977;SHT31;56029;52.568;13.588;2022-07-29T07:33:57;20.37;58.49
68977;SHT31;56029;52.568;13.588;2022-07-29T07:36:23;20.40;57.24
68977;SHT31;56029;52.568;13.588;2022-07-29T07:38:48;20.40;57.78
68977;SHT31;56029;52.568;13.588;2022-07-29T07:41:14;20.48;57.19
68977;SHT31;56029;52.568;13.588;2022-07-29T07:43:40;20.54;57.33
68977;SHT31;56029;52.568;13.588;2022-07-29T07:46:05;20.58;56.49
68977;SHT31;56029;52.568;13.588;2022-07-29T07:48:31;20.64;56.14
68977;SHT31;56029;52.568;13.588;2022-07-29T07:50:56;20.74;57.04
68977;SHT31;56029;52.568;13.588;2022-07-29T07:53:22;20.88;55.64
68977;SHT31;56029;52.568;13.588;2022-07-29T07:55:47;21.03;56.18
68977;SHT31;56029;52.568;13.588;2022-07-29T07:58:13;21.20;55.50
68977;SHT31;56029;52.568;13.588;2022-07-29T08:00:38;21.37;54.85
68977;SHT31;56029;52.568;13.588;2022-07-29T08:03:04;21.50;54.86
68977;SHT31;56029;52.568;13.588;2022-07-29T08:05:30;21.56;54.05
68977;SHT31;56029;52.568;13.588;2022-07-29T08:07:55;21.68;53.86
68977;SHT31;56029;52.568;13.588;2022-07-29T08:10:21;21.73;52.84
68977;SHT31;56029;52.568;13.588;2022-07-29T08:13:07;21.84;53.66
68977;SHT31;56029;52.568;13.588;2022-07-29T08:15:33;21.95;51.37
68977;SHT31;56029;52.568;13.588;2022-07-29T08:17:59;22.04;51.67
68977;SHT31;56029;52.568;13.588;2022-07-29T08:20:25;22.18;52.02
68977;SHT31;56029;52.568;13.588;2022-07-29T08:22:51;22.31;51.02
68977;SHT31;56029;52.568;13.588;2022-07-29T08:25:18;22.43;50.70
68977;SHT31;56029;52.568;13.588;2022-07-29T08:27:46;22.46;50.27
68977;SHT31;56029;52.568;13.588;2022-07-29T08:30:12;22.62;52.31
68977;SHT31;56029;52.568;13.588;2022-07-29T08:32:38;22.67;50.27
68977;SHT31;56029;52.568;13.588;2022-07-29T08:35:04;22.76;49.43
68977;SHT31;56029;52.568;13.588;2022-07-29T08:37:30;22.72;49.28
68977;SHT31;56029;52.568;13.588;2022-07-29T08:39:55;22.90;49.47
68977;SHT31;56029;52.568;13.588;2022-07-29T08:42:21;23.01;50.15
68977;SHT31;56029;52.568;13.588;2022-07-29T08:44:47;23.14;49.68
68977;SHT31;56029;52.568;13.588;2022-07-29T08:47:16;23.32;46.85
68977;SHT31;56029;52.568;13.588;2022-07-29T08:49:42;23.45;46.07
68977;SHT31;56029;52.568;13.588;2022-07-29T08:52:12;23.59;47.08
68977;SHT31;56029;52.568;13.588;2022-07-29T08:54:40;23.66;46.86
68977;SHT31;56029;52.568;13.588;2022-07-29T08:57:07;23.72;46.25
68977;SHT31;56029;52.568;13.588;2022-07-29T08:59:34;23.82;46.04
68977;SHT31;56029;52.568;13.588;2022-07-29T09:02:00;23.68;45.44
68977;SHT31;56029;52.568;13.588;2022-07-29T09:04:30;23.62;45.78
68977;SHT31;56029;52.568;13.588;2022-07-29T09:07:02;23.72;45.94
68977;SHT31;56029;52.568;13.588;2022-07-29T09:09:29;23.76;44.75
68977;SHT31;56029;52.568;13.588;2022-07-29T09:11:54;23.82;44.47
68977;SHT31;56029;52.568;13.588;2022-07-29T09:14:20;23.83;45.51
68977;SHT31;56029;52.568;13.588;2022-07-29T09:16:51;23.86;45.86
68977;SHT31;56029;52.568;13.588;2022-07-29T09:19:22;23.82;45.25
68977;SHT31;56029;52.568;13.588;2022-07-29T09:21:48;23.78;45.59
68977;SHT31;56029;52.568;13.588;2022-07-29T09:24:23;23.78;45.15
68977;SHT31;56029;52.568;13.588;2022-07-29T09:26:49;23.89;45.34
68977;SHT31;56029;52.568;13.588;2022-07-29T09:29:17;23.90;45.42
68977;SHT31;56029;52.568;13.588;2022-07-29T09:31:45;23.90;44.60
68977;SHT31;56029;52.568;13.588;2022-07-29T09:34:14;23.98;45.42
68977;SHT31;56029;52.568;13.588;2022-07-29T09:36:44;23.95;43.93
68977;SHT31;56029;52.568;13.588;2022-07-29T09:39:11;24.05;45.02
68977;SHT31;56029;52.568;13.588;2022-07-29T09:41:48;24.12;44.94
68977;SHT31;56029;52.568;13.588;2022-07-29T09:44:13;24.37;44.89
68977;SHT31;56029;52.568;13.588;2022-07-29T09:46:51;24.55;44.36
68977;SHT31;56029;52.568;13.588;2022-07-29T09:49:17;24.67;43.47
68977;SHT31;56029;52.568;13.588;2022-07-29T09:51:43;24.67;43.41
68977;SHT31;56029;52.568;13.588;2022-07-29T09:54:25;24.88;43.29
68977;SHT31;56029;52.568;13.588;2022-07-29T09:56:52;25.02;43.19
68977;SHT31;56029;52.568;13.588;2022-07-29T09:59:18;24.91;40.99
68977;SHT31;56029;52.568;13.588;2022-07-29T10:01:45;24.98;41.23
68977;SHT31;56029;52.568;13.588;2022-07-29T10:04:11;25.02;41.25
68977;SHT31;56029;52.568;13.588;2022-07-29T10:06:56;25.15;41.80
68977;SHT31;56029;52.568;13.588;2022-07-29T10:09:23;25.33;40.92
68977;SHT31;56029;52.568;13.588;2022-07-29T10:12:12;25.33;39.95
68977;SHT31;56029;52.568;13.588;2022-07-29T10:14:41;25.32;39.68
68977;SHT31;56029;52.568;13.588;2022-07-29T10:17:09;25.27;36.53
68977;SHT31;56029;52.568;13.588;2022-07-29T10:19:36;25.32;38.51
68977;SHT31;56029;52.568;13.588;2022-07-29T10:22:06;25.40;38.19
68977;SHT31;56029;52.568;13.588;2022-07-29T10:24:32;25.50;37.35
68977;SHT31;56029;52.568;13.588;2022-07-29T10:27:00;25.70;37.34
68977;SHT31;56029;52.568;13.588;2022-07-29T10:29:27;25.74;37.53
68977;SHT31;56029;52.568;13.588;2022-07-29T10:32:11;25.80;37.27
68977;SHT31;56029;52.568;13.588;2022-07-29T10:40:16;25.37;37.89
68977;SHT31;56029;52.568;13.588;2022-07-29T10:43:14;25.30;38.20
68977;SHT31;56029;52.568;13.588;2022-07-29T10:45:41;25.33;37.95
68977;SHT31;56029;52.568;13.588;2022-07-29T10:48:06;25.33;37.87
68977;SHT31;56029;52.568;13.588;2022-07-29T10:53:21;25.67;37.91
68977;SHT31;56029;52.568;13.588;2022-07-29T10:55:47;25.85;38.07
68977;SHT31;56029;52.568;13.588;2022-07-29T10:58:22;25.83;38.46
68977;SHT31;56029;52.568;13.588;2022-07-29T11:00:54;25.95;38.83
68977;SHT31;56029;52.568;13.588;2022-07-29T11:03:45;25.95;38.20
68977;SHT31;56029;52.568;13.588;2022-07-29T11:06:13;25.85;38.30
68977;SHT31;56029;52.568;13.588;2022-07-29T11:08:39;25.67;38.57
68977;SHT31;56029;52.568;13.588;2022-07-29T11:13:50;26.25;38.60
68977;SHT31;56029;52.568;13.588;2022-07-29T11:16:18;26.39;38.02
68977;SHT31;56029;52.568;13.588;2022-07-29T11:21:40;26.49;39.24
68977;SHT31;56029;52.568;13.588;2022-07-29T11:24:18;26.75;39.26
68977;SHT31;56029;52.568;13.588;2022-07-29T11:26:44;26.83;38.84
68977;SHT31;56029;52.568;13.588;2022-07-29T11:29:21;26.94;38.36
68977;SHT31;56029;52.568;13.588;2022-07-29T11:31:52;27.01;38.34
68977;SHT31;56029;52.568;13.588;2022-07-29T11:34:29;26.76;38.13
68977;SHT31;56029;52.568;13.588;2022-07-29T11:40:08;26.36;39.21
68977;SHT31;56029;52.568;13.588;2022-07-29T11:45:14;26.32;39.72
68977;SHT31;56029;52.568;13.588;2022-07-29T11:50:30;26.28;40.15
68977;SHT31;56029;52.568;13.588;2022-07-29T11:52:56;26.21;40.44
68977;SHT31;56029;52.568;13.588;2022-07-29T11:55:23;26.29;41.72
68977;SHT31;56029;52.568;13.588;2022-07-29T11:57:55;26.24;41.82
68977;SHT31;56029;52.568;13.588;2022-07-29T12:00:33;26.21;41.21
68977;SHT31;56029;52.568;13.588;2022-07-29T12:03:03;26.24;41.15
68977;SHT31;56029;52.568;13.588;2022-07-29T12:05:47;26.49;42.58
68977;SHT31;56029;52.568;13.588;2022-07-29T12:08:19;26.79;41.64
68977;SHT31;56029;52.568;13.588;2022-07-29T12:10:46;26.97;41.86
68977;SHT31;56029;52.568;13.588;2022-07-29T12:13:13;26.96;40.71
68977;SHT31;56029;52.568;13.588;2022-07-29T12:15:39;27.00;41.04
68977;SHT31;56029;52.568;13.588;2022-07-29T12:18:17;26.96;42.28
68977;SHT31;56029;52.568;13.588;2022-07-29T12:20:44;26.78;41.91
68977;SHT31;56029;52.568;13.588;2022-07-29T12:23:10;26.56;41.58
68977;SHT31;56029;52.568;13.588;2022-07-29T12:25:39;26.76;42.14
68977;SHT31;56029;52.568;13.588;2022-07-29T12:28:07;26.60;42.53
68977;SHT31;56029;52.568;13.588;2022-07-29T12:30:35;26.82;41.26
68977;SHT31;56029;52.568;13.588;2022-07-29T12:33:10;27.07;41.98
68977;SHT31;56029;52.568;13.588;2022-07-29T12:35:36;27.18;41.26
68977;SHT31;56029;52.568;13.588;2022-07-29T12:38:02;27.39;42.19
68977;SHT31;56029;52.568;13.588;2022-07-29T12:40:27;27.47;41.09
68977;SHT31;56029;52.568;13.588;2022-07-29T12:43:14;27.52;40.71
68977;SHT31;56029;52.568;13.588;2022-07-29T12:45:40;27.62;40.99
68977;SHT31;56029;52.568;13.588;2022-07-29T12:48:07;27.84;40.53
68977;SHT31;56029;52.568;13.588;2022-07-29T12:50:52;27.93;40.90
68977;SHT31;56029;52.568;13.588;2022-07-29T12:53:18;27.73;41.15
68977;SHT31;56029;52.568;13.588;2022-07-29T12:55:47;27.54;41.23
68977;SHT31;56029;52.568;13.588;2022-07-29T12:58:27;27.39;41.73
68977;SHT31;56029;52.568;13.588;2022-07-29T13:01:05;27.47;41.88
68977;SHT31;56029;52.568;13.588;2022-07-29T13:03:45;27.59;41.15
68977;SHT31;56029;52.568;13.588;2022-07-29T13:06:39;27.78;40.80
68977;SHT31;56029;52.568;13.588;2022-07-29T13:09:17;28.09;41.42
68977;SHT31;56029;52.568;13.588;2022-07-29T13:11:47;28.20;40.82
68977;SHT31;56029;52.568;13.588;2022-07-29T13:14:36;28.24;39.96
68977;SHT31;56029;52.568;13.588;2022-07-29T13:17:19;28.07;40.26
68977;SHT31;56029;52.568;13.588;2022-07-29T13:19:52;28.00;39.49
68977;SHT31;56029;52.568;13.588;2022-07-29T13:22:20;27.86;39.75
68977;SHT31;56029;52.568;13.588;2022-07-29T13:24:49;27.90;40.78
68977;SHT31;56029;52.568;13.588;2022-07-29T13:27:16;27.89;40.74
68977;SHT31;56029;52.568;13.588;2022-07-29T13:29:42;27.66;39.70
68977;SHT31;56029;52.568;13.588;2022-07-29T13:32:08;27.57;40.70
68977;SHT31;56029;52.568;13.588;2022-07-29T13:34:34;27.63;40.60
68977;SHT31;56029;52.568;13.588;2022-07-29T13:36:59;27.70;41.59
68977;SHT31;56029;52.568;13.588;2022-07-29T13:39:25;27.81;40.27
68977;SHT31;56029;52.568;13.588;2022-07-29T13:41:51;28.02;39.80
68977;SHT31;56029;52.568;13.588;2022-07-29T13:44:16;27.95;39.70
68977;SHT31;56029;52.568;13.588;2022-07-29T13:46:42;27.90;39.82
68977;SHT31;56029;52.568;13.588;2022-07-29T13:49:07;28.06;41.00
68977;SHT31;56029;52.568;13.588;2022-07-29T13:51:33;28.09;40.08
68977;SHT31;56029;52.568;13.588;2022-07-29T13:53:58;28.07;40.61
68977;SHT31;56029;52.568;13.588;2022-07-29T13:56:24;28.13;40.33
68977;SHT31;56029;52.568;13.588;2022-07-29T13:58:49;28.24;40.07
68977;SHT31;56029;52.568;13.588;2022-07-29T14:01:15;28.12;39.95
68977;SHT31;56029;52.568;13.588;2022-07-29T14:03:40;28.26;39.48
68977;SHT31;56029;52.568;13.588;2022-07-29T14:06:08;28.37;39.64
68977;SHT31;56029;52.568;13.588;2022-07-29T14:08:34;28.54;39.37
68977;SHT31;56029;52.568;13.588;2022-07-29T14:11:00;28.63;39.82
68977;SHT31;56029;52.568;13.588;2022-07-29T14:13:25;28.65;39.18
68977;SHT31;56029;52.568;13.588;2022-07-29T14:15:51;28.71;39.72
68977;SHT31;56029;52.568;13.588;2022-07-29T14:18:17;28.84;39.43
68977;SHT31;56029;52.568;13.588;2022-07-29T14:20:42;28.72;38.45
68977;SHT31;56029;52.568;13.588;2022-07-29T14:23:08;28.67;38.02
68977;SHT31;56029;52.568;13.588;2022-07-29T14:25:34;28.76;38.19
68977;SHT31;56029;52.568;13.588;2022-07-29T14:27:59;28.76;37.76
68977;SHT31;56029;52.568;13.588;2022-07-29T14:30:25;28.88;38.22
68977;SHT31;56029;52.568;13.588;2022-07-29T14:32:50;28.63;38.42
68977;SHT31;56029;52.568;13.588;2022-07-29T14:35:16;28.32;38.82
68977;SHT31;56029;52.568;13.588;2022-07-29T14:37:41;27.99;39.14
68977;SHT31;56029;52.568;13.588;2022-07-29T14:40:08;27.86;39.50
68977;SHT31;56029;52.568;13.588;2022-07-29T14:42:34;27.73;40.02
68977;SHT31;56029;52.568;13.588;2022-07-29T14:45:01;27.65;39.71
68977;SHT31;56029;52.568;13.588;2022-07-29T14:47:27;27.68;40.17
68977;SHT31;56029;52.568;13.588;2022-07-29T14:49:52;27.52;39.63
68977;SHT31;56029;52.568;13.588;2022-07-29T14:52:18;27.52;40.26
68977;SHT31;56029;52.568;13.588;2022-07-29T14:54:43;27.70;40.23
68977;SHT31;56029;52.568;13.588;2022-07-29T14:57:09;27.92;38.99
68977;SHT31;56029;52.568;13.588;2022-07-29T14:59:34;28.10;38.82
68977;SHT31;56029;52.568;13.588;2022-07-29T15:02:00;28.17;38.70
68977;SHT31;56029;52.568;13.588;2022-07-29T15:04:26;28.24;39.03
68977;SHT31;56029;52.568;13.588;2022-07-29T15:06:51;28.36;39.47
68977;SHT31;56029;52.568;13.588;2022-07-29T15:09:17;28.39;38.59
68977;SHT31;56029;52.568;13.588;2022-07-29T15:11:43;28.45;38.89
68977;SHT31;56029;52.568;13.588;2022-07-29T15:14:09;28.34;39.32
68977;SHT31;56029;52.568;13.588;2022-07-29T15:16:36;28.07;39.03
68977;SHT31;56029;52.568;13.588;2022-07-29T15:19:03;27.96;39.04
68977;SHT31;56029;52.568;13.588;2022-07-29T15:21:28;27.68;39.05
68977;SHT31;56029;52.568;13.588;2022-07-29T15:23:54;27.54;39.15
68977;SHT31;56029;52.568;13.588;2022-07-29T15:26:19;27.59;39.61
68977;SHT31;56029;52.568;13.588;2022-07-29T15:28:45;27.85;40.11
68977;SHT31;56029;52.568;13.588;2022-07-29T15:31:11;27.99;39.36
68977;SHT31;56029;52.568;13.588;2022-07-29T15:33:36;28.00;38.67
68977;SHT31;56029;52.568;13.588;2022-07-29T15:36:02;28.07;39.19
68977;SHT31;56029;52.568;13.588;2022-07-29T15:38:30;28.05;38.76
68977;SHT31;56029;52.568;13.588;2022-07-29T15:40:56;27.97;38.46
68977;SHT31;56029;52.568;13.588;2022-07-29T15:43:22;27.96;38.61
68977;SHT31;56029;52.568;13.588;2022-07-29T15:45:48;27.72;38.63
68977;SHT31;56029;52.568;13.588;2022-07-29T15:48:32;27.73;38.49
68977;SHT31;56029;52.568;13.588;2022-07-29T15:50:59;27.78;38.70
68977;SHT31;56029;52.568;13.588;2022-07-29T15:53:25;27.99;39.01
68977;SHT31;56029;52.568;13.588;2022-07-29T15:55:51;28.16;38.70
68977;SHT31;56029;52.568;13.588;2022-07-29T15:58:16;28.55;38.03
68977;SHT31;56029;52.568;13.588;2022-07-29T16:00:42;29.26;37.03